Harvest Legend — V7SO6 — position and weather

sailwx.info

Track history (hours):
 
Tides and Currents Weather Stations Pressure Air Temp Water Temp Dewpoint Dewpoint Depression Visibility Wind Speed Wind Dir Waves Ship Positions

Harvest Legend

Last reported at 2018-Feb-16 06:18 UTC. Time now 2018-Feb-21 15:42 UTC.
Position N 36°25' E 014°41'.

Length 186 m; draft 6.3 m.

Type: Ship. MMSI: 538003695.

Date/timePositionNaut miles runAvg speedWind from/ knotsBaromVisibWave heightAir tempDewpointWater temp
2018-Feb-16 06:18N 36°25' E 014°41'412.3
2018-Feb-16 06:00N 36°26' E 014°37'612.5
2018-Feb-16 05:29N 36°28' E 014°29'612.5
2018-Feb-16 05:00N 36°30' E 014°22'712.2
2018-Feb-16 04:27N 36°32' E 014°14'612.1
2018-Feb-16 03:59N 36°34' E 014°07'29012.1
2018-Feb-15 04:02N 38°27' E 008°31'112.1
2018-Feb-15 03:59N 38°27' E 008°30'26210.5
2018-Feb-14 02:54N 40°24' E 003°27'7912.0
2018-Feb-13 20:19N 40°53' E 001°50'511.5
2018-Feb-13 19:55N 40°54' E 001°44'511.1
2018-Feb-13 19:30N 40°56' E 001°38'611.2
2018-Feb-13 18:56N 40°58' E 001°31'  
Track history (hours):
 
Tides and Currents Weather Stations Pressure Air Temp Water Temp Dewpoint Dewpoint Depression Visibility Wind Speed Wind Dir Waves Ship Positions

Harvest Legend

Last reported at 2018-Feb-16 06:18 UTC. Time now 2018-Feb-21 15:42 UTC.
Position N 36°25' E 014°41'.

Length 186 m; draft 6.3 m.

Type: Ship. MMSI: 538003695.

Date/timePositionNaut miles runAvg speedWind from/ knotsBaromVisibWave heightAir tempDewpointWater temp
2018-Feb-16 06:18N 36°25' E 014°41'412.3
2018-Feb-16 06:00N 36°26' E 014°37'612.5
2018-Feb-16 05:29N 36°28' E 014°29'612.5
2018-Feb-16 05:00N 36°30' E 014°22'712.2
2018-Feb-16 04:27N 36°32' E 014°14'612.1
2018-Feb-16 03:59N 36°34' E 014°07'29012.1
2018-Feb-15 04:02N 38°27' E 008°31'112.1
2018-Feb-15 03:59N 38°27' E 008°30'26210.5
2018-Feb-14 02:54N 40°24' E 003°27'7912.0
2018-Feb-13 20:19N 40°53' E 001°50'511.5
2018-Feb-13 19:55N 40°54' E 001°44'511.1
2018-Feb-13 19:30N 40°56' E 001°38'611.2
2018-Feb-13 18:56N 40°58' E 001°31'  

Dump ship's entire track history